Time;durP1;ratioP1;P1;durP2;ratioP2;P2;SDS_P1;SDS_P2;PMS_P1;PMS_P2;Temp;Humidity;BMP_temperature;BMP_pressure;BME280_temperature;BME280_humidity;BME280_pressure;Samples;Min_cycle;Max_cycle;Signal;HPM_P1;HPM_P2
2021/08/28 00:00:07;;;;;;;19.10;5.25;;;11.60;99.90;;;;;;5032787;28;20022;-60
2021/08/28 00:02:33;;;;;;;21.58;5.18;;;11.60;99.90;;;;;;5033631;28;20029;-60
2021/08/28 00:04:59;;;;;;;26.95;4.35;;;11.70;99.90;;;;;;5032451;28;20087;-62
2021/08/28 00:07:25;;;;;;;27.48;5.00;;;11.80;99.90;;;;;;5033645;28;20585;-62
2021/08/28 00:09:50;;;;;;;17.42;4.57;;;11.80;99.90;;;;;;5031901;28;20040;-61
2021/08/28 00:12:16;;;;;;;19.92;5.28;;;11.80;99.90;;;;;;5033477;28;20036;-59
2021/08/28 00:14:42;;;;;;;27.00;5.25;;;11.80;99.90;;;;;;5032360;28;20476;-60
2021/08/28 00:17:07;;;;;;;25.27;5.20;;;11.90;99.90;;;;;;5033356;28;20083;-60
2021/08/28 00:19:33;;;;;;;23.63;6.15;;;11.90;99.90;;;;;;5032511;28;20288;-61
2021/08/28 00:21:59;;;;;;;31.38;6.43;;;11.90;99.90;;;;;;5033155;28;20057;-59
2021/08/28 00:24:25;;;;;;;32.72;6.72;;;12.00;99.90;;;;;;5032783;28;20048;-60
2021/08/28 00:26:51;;;;;;;22.00;6.07;;;12.00;99.90;;;;;;5033135;28;20487;-60
2021/08/28 00:29:16;;;;;;;21.88;5.88;;;12.10;99.90;;;;;;5032336;28;20045;-60
2021/08/28 00:31:43;;;;;;;28.65;7.03;;;12.10;99.90;;;;;;5032576;28;20025;-62
2021/08/28 00:34:09;;;;;;;26.48;6.50;;;12.10;99.90;;;;;;5032175;28;20026;-61
2021/08/28 00:36:35;;;;;;;29.35;6.65;;;12.00;99.90;;;;;;5032767;28;20395;-60
2021/08/28 00:39:01;;;;;;;20.70;5.57;;;12.00;99.90;;;;;;5032393;28;20036;-61
2021/08/28 00:41:27;;;;;;;31.52;6.95;;;12.10;99.90;;;;;;5032984;28;20033;-62
2021/08/28 00:43:52;;;;;;;21.50;5.63;;;12.10;99.90;;;;;;5032945;28;20026;-61
2021/08/28 00:46:18;;;;;;;25.25;6.22;;;12.00;99.90;;;;;;5032129;28;20458;-60
2021/08/28 00:48:44;;;;;;;17.60;4.90;;;11.90;99.90;;;;;;5032810;28;20470;-61
2021/08/28 00:51:11;;;;;;;28.25;5.80;;;11.90;99.90;;;;;;5031747;28;20025;-59
2021/08/28 00:53:36;;;;;;;25.85;5.63;;;11.90;99.90;;;;;;5032659;28;20028;-59
2021/08/28 00:56:02;;;;;;;18.63;5.20;;;11.90;99.90;;;;;;5031636;28;20042;-62
2021/08/28 00:58:28;;;;;;;27.60;5.95;;;11.90;99.90;;;;;;5032452;28;20029;-60
2021/08/28 01:00:59;;;;;;;31.40;6.68;;;11.80;99.90;;;;;;5031737;28;20076;-60
2021/08/28 01:03:27;;;;;;;22.67;5.85;;;11.80;99.90;;;;;;5032608;28;20049;-59
2021/08/28 01:06:01;;;;;;;24.45;5.90;;;11.80;99.90;;;;;;5031762;28;20033;-61
2021/08/28 01:08:43;;;;;;;21.63;5.75;;;11.80;99.90;;;;;;5032196;28;20467;-62
2021/08/28 01:11:16;;;;;;;35.42;5.63;;;11.80;99.90;;;;;;5031574;28;20040;-59
2021/08/28 01:13:51;;;;;;;30.13;6.25;;;11.80;99.90;;;;;;5032233;28;20029;-61
2021/08/28 01:16:20;;;;;;;25.90;6.53;;;11.80;99.90;;;;;;5031576;28;20052;-60
2021/08/28 01:18:46;;;;;;;18.60;5.57;;;11.70;99.90;;;;;;5032046;28;20124;-60
2021/08/28 01:21:40;;;;;;;23.75;5.53;;;11.70;99.90;;;;;;5030359;28;20500;-60
2021/08/28 01:24:07;;;;;;;27.05;5.78;;;11.80;99.90;;;;;;5031721;28;20120;-60
2021/08/28 01:26:58;;;;;;;26.17;6.03;;;11.80;99.90;;;;;;5031643;28;20030;-61
2021/08/28 01:29:32;;;;;;;22.85;5.88;;;11.80;99.90;;;;;;5031446;28;20041;-59
2021/08/28 01:31:59;;;;;;;23.13;6.03;;;11.80;99.90;;;;;;5032226;28;20025;-61
2021/08/28 01:34:26;;;;;;;21.58;5.82;;;11.80;99.90;;;;;;5031068;28;20045;-61
2021/08/28 01:36:53;;;;;;;25.05;6.20;;;11.80;99.90;;;;;;5031808;28;20056;-60
2021/08/28 01:39:19;;;;;;;30.98;6.00;;;11.80;99.90;;;;;;5031416;28;20048;-60
2021/08/28 01:41:50;;;;;;;24.02;6.10;;;11.80;99.90;;;;;;5031798;28;20547;-59
2021/08/28 01:44:17;;;;;;;28.70;6.47;;;11.80;99.90;;;;;;5032055;28;20025;-60
2021/08/28 01:46:43;;;;;;;30.98;7.43;;;11.80;99.90;;;;;;5031357;28;20040;-61
2021/08/28 01:49:12;;;;;;;31.73;6.38;;;11.80;99.90;;;;;;5031397;28;20086;-62
2021/08/28 01:51:40;;;;;;;32.60;7.63;;;11.90;99.90;;;;;;5030936;28;20022;-60
2021/08/28 01:54:06;;;;;;;35.92;7.40;;;11.90;99.90;;;;;;5031786;28;20037;-60
2021/08/28 01:56:32;;;;;;;34.25;6.70;;;11.90;99.90;;;;;;5030465;28;20030;-62
2021/08/28 01:59:00;;;;;;;32.47;6.18;;;12.00;99.90;;;;;;5031606;28;20064;-60
2021/08/28 02:01:27;;;;;;;37.60;6.68;;;12.00;99.90;;;;;;5030368;28;20101;-59
2021/08/28 02:03:53;;;;;;;38.47;6.97;;;12.00;99.90;;;;;;5031373;28;20453;-60
2021/08/28 02:07:07;;;;;;;40.95;7.35;;;12.10;99.90;;;;;;5030268;28;20068;-59
2021/08/28 02:09:41;;;;;;;43.55;7.53;;;12.10;99.90;;;;;;5048253;28;20441;-61
2021/08/28 02:12:36;;;;;;;42.63;7.70;;;12.20;99.90;;;;;;5048654;28;20045;-60
2021/08/28 02:15:10;;;;;;;48.53;8.05;;;12.20;99.90;;;;;;5024471;28;20124;-62
2021/08/28 02:17:41;;;;;;;41.93;8.87;;;12.30;99.90;;;;;;5031292;28;20060;-59
2021/08/28 02:20:09;;;;;;;34.65;7.85;;;12.30;99.90;;;;;;5030272;28;20471;-61
2021/08/28 02:22:40;;;;;;;38.22;8.20;;;12.30;99.90;;;;;;5031216;28;20043;-60
2021/08/28 02:25:28;;;;;;;35.22;8.30;;;12.30;99.90;;;;;;5030635;28;20056;-60
2021/08/28 02:28:00;;;;;;;44.85;8.93;;;12.30;99.90;;;;;;5031083;28;20083;-60
2021/08/28 02:30:27;;;;;;;42.83;8.73;;;12.30;99.90;;;;;;5030095;28;20029;-61
2021/08/28 02:32:55;;;;;;;40.97;9.10;;;12.30;99.90;;;;;;5030499;28;20021;-60
2021/08/28 02:35:21;;;;;;;45.03;9.00;;;12.30;99.90;;;;;;5030193;28;20165;-61
2021/08/28 02:37:48;;;;;;;56.78;10.10;;;12.30;99.90;;;;;;5030974;28;20032;-62
2021/08/28 02:40:19;;;;;;;50.08;9.13;;;12.30;99.90;;;;;;5030498;28;20036;-60
2021/08/28 02:42:44;;;;;;;42.35;9.35;;;12.30;99.90;;;;;;5030874;28;20629;-62
2021/08/28 02:45:19;;;;;;;52.15;10.23;;;12.30;99.90;;;;;;5030376;28;20033;-59
2021/08/28 02:47:46;;;;;;;40.03;9.35;;;12.30;99.90;;;;;;5030852;28;20037;-59
2021/08/28 02:50:16;;;;;;;49.58;9.65;;;12.40;99.90;;;;;;5030269;28;20033;-62
2021/08/28 02:52:48;;;;;;;43.13;9.35;;;12.30;99.90;;;;;;5062659;28;20422;-61
2021/08/28 02:55:15;;;;;;;43.58;9.43;;;12.40;99.90;;;;;;5030249;28;20459;-59
2021/08/28 02:57:44;;;;;;;41.05;9.40;;;12.50;99.90;;;;;;5031099;28;20128;-60
2021/08/28 03:00:10;;;;;;;47.33;9.63;;;12.50;99.90;;;;;;5026773;28;20494;-61
2021/08/28 03:02:37;;;;;;;45.60;8.63;;;12.50;99.90;;;;;;5030518;28;20029;-63
2021/08/28 03:05:06;;;;;;;40.28;9.68;;;12.50;99.90;;;;;;5029993;28;20426;-60
2021/08/28 03:07:36;;;;;;;42.78;9.32;;;12.50;99.90;;;;;;5030461;28;20030;-59
2021/08/28 03:10:03;;;;;;;46.47;9.32;;;12.50;99.90;;;;;;5030308;28;20029;-60
2021/08/28 03:12:28;;;;;;;39.30;9.85;;;12.50;99.90;;;;;;5030452;28;20387;-59
2021/08/28 03:14:54;;;;;;;40.22;9.63;;;12.60;99.90;;;;;;5029157;28;20033;-60
2021/08/28 03:17:21;;;;;;;44.05;10.05;;;12.60;99.90;;;;;;5029974;28;20025;-61
2021/08/28 03:19:48;;;;;;;38.80;10.23;;;12.60;99.90;;;;;;5030397;28;20480;-60
2021/08/28 03:22:17;;;;;;;47.72;10.43;;;12.60;99.90;;;;;;5029618;28;20084;-60
2021/08/28 03:24:46;;;;;;;41.38;9.65;;;12.70;99.90;;;;;;5046194;28;20364;-60
2021/08/28 03:27:15;;;;;;;43.70;10.35;;;12.70;99.90;;;;;;5029643;28;20091;-59
2021/08/28 03:29:43;;;;;;;50.63;11.25;;;12.80;99.90;;;;;;5030481;28;20092;-60
2021/08/28 03:32:09;;;;;;;45.45;9.52;;;12.80;99.90;;;;;;5029527;28;20091;-61
2021/08/28 03:34:35;;;;;;;38.03;9.73;;;12.90;99.90;;;;;;5030107;28;20387;-58
2021/08/28 03:37:01;;;;;;;48.45;10.23;;;12.90;99.90;;;;;;5029859;28;20025;-60
2021/08/28 03:39:27;;;;;;;41.97;9.43;;;12.90;99.90;;;;;;5030120;28;20025;-60
2021/08/28 03:41:53;;;;;;;48.35;10.50;;;12.90;99.90;;;;;;5029622;28;20048;-59
2021/08/28 03:44:19;;;;;;;40.33;10.05;;;12.90;99.90;;;;;;5031519;28;20034;-61
2021/08/28 03:46:46;;;;;;;44.25;9.73;;;13.00;99.90;;;;;;5033442;28;20121;-63
2021/08/28 03:49:13;;;;;;;37.17;9.48;;;12.90;99.90;;;;;;5033800;28;20553;-59
2021/08/28 03:51:38;;;;;;;41.78;9.23;;;13.00;99.90;;;;;;5033350;28;20037;-62
2021/08/28 03:54:04;;;;;;;47.72;9.35;;;13.00;99.90;;;;;;5033680;28;20363;-61
2021/08/28 03:56:30;;;;;;;37.92;8.05;;;13.00;99.90;;;;;;5032849;28;20104;-61
2021/08/28 03:58:55;;;;;;;40.50;8.85;;;12.90;99.90;;;;;;5033894;28;20064;-59
2021/08/28 04:01:21;;;;;;;32.97;8.23;;;13.00;99.90;;;;;;5032727;28;20033;-59
2021/08/28 04:03:47;;;;;;;53.80;9.65;;;12.90;99.90;;;;;;5032243;28;20036;-60
2021/08/28 04:06:13;;;;;;;48.17;9.52;;;13.00;99.90;;;;;;5031574;28;20029;-60
2021/08/28 04:08:39;;;;;;;44.40;8.88;;;13.00;99.90;;;;;;5033297;28;20770;-61
2021/08/28 04:11:05;;;;;;;46.60;9.43;;;12.90;99.90;;;;;;5032658;28;20037;-61
2021/08/28 04:13:31;;;;;;;42.28;8.23;;;12.90;99.90;;;;;;5033280;28;20060;-60
2021/08/28 04:15:57;;;;;;;46.83;8.60;;;13.00;99.90;;;;;;5032523;28;20045;-60
2021/08/28 04:18:22;;;;;;;49.17;8.52;;;13.00;99.90;;;;;;5033482;28;20040;-60
2021/08/28 04:20:48;;;;;;;47.58;9.73;;;13.00;99.90;;;;;;5032483;28;20387;-60
2021/08/28 04:23:14;;;;;;;42.92;8.88;;;13.00;99.90;;;;;;5033357;28;20487;-59
2021/08/28 04:25:39;;;;;;;42.70;9.38;;;12.90;99.90;;;;;;5032474;28;20399;-60
2021/08/28 04:28:05;;;;;;;44.88;9.52;;;13.00;99.90;;;;;;5032722;28;20567;-60
2021/08/28 04:30:32;;;;;;;47.17;9.05;;;13.00;99.90;;;;;;5032641;28;20025;-60
2021/08/28 04:32:58;;;;;;;38.85;9.25;;;12.90;99.90;;;;;;5033024;28;20040;-59
2021/08/28 04:35:24;;;;;;;43.78;9.57;;;12.90;99.90;;;;;;5032933;28;20395;-61
2021/08/28 04:37:50;;;;;;;42.58;10.05;;;12.90;99.90;;;;;;5031849;28;20029;-60
2021/08/28 04:40:16;;;;;;;43.10;10.98;;;12.90;99.90;;;;;;5032992;28;20041;-60
2021/08/28 04:42:41;;;;;;;39.90;10.68;;;12.90;99.90;;;;;;5031942;28;20036;-59
2021/08/28 04:45:08;;;;;;;43.08;11.02;;;13.00;99.90;;;;;;5032840;28;20472;-60
2021/08/28 04:47:33;;;;;;;43.00;12.48;;;13.00;99.90;;;;;;5032284;28;20037;-60
2021/08/28 04:49:59;;;;;;;39.72;11.88;;;13.00;99.90;;;;;;5032897;28;20530;-62
2021/08/28 04:52:25;;;;;;;53.70;13.18;;;12.90;99.90;;;;;;5031731;28;20397;-60
2021/08/28 04:54:50;;;;;;;44.70;11.98;;;12.90;99.90;;;;;;5032683;28;20096;-60
2021/08/28 04:57:16;;;;;;;41.20;11.63;;;12.90;99.90;;;;;;5031980;28;20394;-60
2021/08/28 04:59:42;;;;;;;40.83;11.13;;;13.00;99.90;;;;;;5032901;28;20031;-60
2021/08/28 05:02:08;;;;;;;40.17;11.20;;;13.00;99.90;;;;;;5031600;28;20046;-61
2021/08/28 05:04:33;;;;;;;43.13;11.40;;;13.00;99.90;;;;;;5032557;28;20038;-61
2021/08/28 05:06:59;;;;;;;46.47;12.18;;;13.00;99.90;;;;;;5031806;28;20087;-60
2021/08/28 05:09:25;;;;;;;41.65;11.73;;;13.00;99.90;;;;;;5032153;28;20053;-60
2021/08/28 05:11:51;;;;;;;48.13;11.55;;;13.00;99.90;;;;;;5031183;28;20659;-60
2021/08/28 05:14:17;;;;;;;55.58;10.85;;;13.00;99.90;;;;;;5032521;28;20104;-61
2021/08/28 05:16:43;;;;;;;49.00;11.27;;;13.10;99.90;;;;;;5031493;28;20120;-60
2021/08/28 05:19:09;;;;;;;52.60;12.50;;;13.10;99.90;;;;;;5031975;28;20022;-61
2021/08/28 05:21:34;;;;;;;45.17;10.68;;;13.10;99.90;;;;;;5031458;28;20523;-60
2021/08/28 05:24:00;;;;;;;47.58;11.30;;;13.10;99.90;;;;;;5032023;28;20499;-60
2021/08/28 05:26:26;;;;;;;58.78;11.68;;;13.00;99.90;;;;;;5031373;28;20026;-59
2021/08/28 05:28:52;;;;;;;51.08;11.35;;;13.10;99.90;;;;;;5032014;28;20581;-60
2021/08/28 05:31:17;;;;;;;46.38;11.18;;;13.20;99.90;;;;;;5031833;28;20481;-61
2021/08/28 05:33:43;;;;;;;51.80;11.23;;;13.20;99.90;;;;;;5031739;28;20021;-60
2021/08/28 05:36:09;;;;;;;59.58;11.55;;;13.20;99.90;;;;;;5029906;28;20491;-60
2021/08/28 05:38:34;;;;;;;43.92;9.52;;;13.20;99.90;;;;;;5031686;28;20060;-61
2021/08/28 05:41:00;;;;;;;46.53;10.35;;;13.20;99.90;;;;;;5031161;28;20368;-61
2021/08/28 05:43:26;;;;;;;46.08;10.07;;;13.20;99.90;;;;;;5031467;28;20548;-60
2021/08/28 05:45:52;;;;;;;41.85;9.63;;;13.20;99.90;;;;;;5031590;28;20433;-60
2021/08/28 05:48:18;;;;;;;36.97;9.52;;;13.30;99.90;;;;;;5031373;28;20104;-60
2021/08/28 05:50:44;;;;;;;46.90;10.13;;;13.30;99.90;;;;;;5031459;28;20025;-61
2021/08/28 05:53:09;;;;;;;42.03;9.98;;;13.30;99.90;;;;;;5030874;28;20041;-61
2021/08/28 05:55:35;;;;;;;46.72;9.15;;;13.30;99.90;;;;;;5031833;28;20042;-60
2021/08/28 05:58:01;;;;;;;35.33;8.95;;;13.30;99.90;;;;;;5030638;28;20056;-60
2021/08/28 06:00:26;;;;;;;36.65;9.60;;;13.40;99.90;;;;;;5031339;28;20399;-61
2021/08/28 06:02:52;;;;;;;38.78;9.38;;;13.50;99.90;;;;;;5030508;28;20036;-61
2021/08/28 06:05:18;;;;;;;34.38;8.85;;;13.50;99.90;;;;;;5031392;28;20060;-61
2021/08/28 06:07:43;;;;;;;29.55;10.52;;;13.50;99.90;;;;;;5029883;28;20046;-61
2021/08/28 06:10:09;;;;;;;37.50;9.70;;;13.60;99.90;;;;;;5031238;28;20033;-60
2021/08/28 06:12:36;;;;;;;31.45;9.30;;;13.60;99.90;;;;;;5030650;28;20029;-60
2021/08/28 06:15:05;;;;;;;35.65;9.55;;;13.60;99.90;;;;;;5031252;28;20091;-62
2021/08/28 06:17:31;;;;;;;35.38;10.48;;;13.70;99.90;;;;;;5030650;28;20053;-60
2021/08/28 06:19:56;;;;;;;37.17;10.43;;;13.70;99.90;;;;;;5031482;28;20033;-62
2021/08/28 06:22:22;;;;;;;28.65;9.27;;;13.80;99.90;;;;;;5030048;28;20091;-62
2021/08/28 06:24:48;;;;;;;34.65;9.65;;;13.90;99.90;;;;;;5031016;28;20036;-59
2021/08/28 06:27:13;;;;;;;26.30;9.02;;;13.90;99.90;;;;;;5030501;28;20033;-62
2021/08/28 06:29:39;;;;;;;27.83;9.40;;;13.90;99.90;;;;;;5031215;28;20052;-60
2021/08/28 06:32:05;;;;;;;32.08;9.52;;;13.90;99.90;;;;;;5029685;28;20554;-61
2021/08/28 06:34:31;;;;;;;31.30;9.90;;;13.90;99.90;;;;;;5031238;28;20087;-61
2021/08/28 06:36:56;;;;;;;35.75;8.75;;;14.00;99.90;;;;;;5030417;28;20472;-59
2021/08/28 06:39:22;;;;;;;25.38;8.18;;;14.00;99.90;;;;;;5030771;28;20463;-59
2021/08/28 06:41:48;;;;;;;28.75;8.35;;;14.10;99.90;;;;;;5030328;28;20056;-63
2021/08/28 06:44:14;;;;;;;27.77;8.95;;;14.10;99.90;;;;;;5044726;28;20064;-59
2021/08/28 06:46:39;;;;;;;28.67;8.13;;;14.20;99.90;;;;;;5030520;28;20512;-58
2021/08/28 06:49:05;;;;;;;31.05;7.90;;;14.20;99.90;;;;;;5030343;28;20029;-60
2021/08/28 06:51:31;;;;;;;29.95;7.85;;;14.20;99.90;;;;;;5030585;28;20029;-62
2021/08/28 06:53:57;;;;;;;31.15;8.40;;;14.20;99.90;;;;;;5029333;28;20036;-61
2021/08/28 06:56:22;;;;;;;24.95;7.53;;;14.30;99.90;;;;;;5030265;28;20033;-60
2021/08/28 06:58:48;;;;;;;38.95;8.82;;;14.30;99.90;;;;;;5030267;28;20387;-61
2021/08/28 07:01:14;;;;;;;31.58;9.65;;;14.30;99.90;;;;;;5030528;28;20033;-62
2021/08/28 07:03:39;;;;;;;27.50;7.43;;;14.30;99.90;;;;;;5030041;28;20027;-62
2021/08/28 07:06:05;;;;;;;25.45;7.03;;;14.30;99.90;;;;;;5030428;28;20486;-62
2021/08/28 07:08:31;;;;;;;27.77;6.93;;;14.40;99.90;;;;;;5029568;28;20075;-61
2021/08/28 07:10:56;;;;;;;27.58;7.57;;;14.50;99.90;;;;;;5030875;28;20025;-60
2021/08/28 07:13:22;;;;;;;26.08;6.82;;;14.60;99.90;;;;;;5028632;28;20033;-63
2021/08/28 07:15:48;;;;;;;21.70;6.50;;;14.80;99.90;;;;;;5030549;28;20396;-58
2021/08/28 07:18:15;;;;;;;18.48;5.40;;;15.00;99.90;;;;;;5029939;28;20498;-60
2021/08/28 07:20:41;;;;;;;24.27;5.90;;;15.10;99.90;;;;;;5033900;28;20475;-60
2021/08/28 07:23:07;;;;;;;24.00;6.05;;;15.10;99.90;;;;;;5033577;28;20029;-62
2021/08/28 07:25:37;;;;;;;20.20;6.45;;;15.30;99.90;;;;;;5034266;28;20410;-60
2021/08/28 07:28:06;;;;;;;24.35;6.85;;;15.50;99.90;;;;;;5033518;28;20057;-62
2021/08/28 07:30:32;;;;;;;20.05;5.45;;;15.70;99.90;;;;;;5034136;28;20021;-59
2021/08/28 07:32:58;;;;;;;24.15;5.78;;;16.00;99.90;;;;;;5033525;28;20044;-62
2021/08/28 07:35:24;;;;;;;19.67;5.00;;;16.40;99.90;;;;;;5034022;28;20470;-61
2021/08/28 07:37:50;;;;;;;18.70;5.47;;;16.50;99.90;;;;;;5033669;28;20060;-60
2021/08/28 07:40:16;;;;;;;21.33;6.05;;;16.70;99.90;;;;;;5034172;28;20507;-60
2021/08/28 07:42:41;;;;;;;18.27;5.57;;;16.80;99.90;;;;;;5033005;28;20048;-61
2021/08/28 07:45:07;;;;;;;16.88;5.57;;;16.90;99.90;;;;;;5034010;28;20034;-58
2021/08/28 07:47:33;;;;;;;19.95;5.68;;;16.70;99.90;;;;;;5031819;28;20187;-60
2021/08/28 07:49:59;;;;;;;16.83;5.07;;;16.70;99.90;;;;;;5034056;28;20152;-59
2021/08/28 07:52:24;;;;;;;16.23;5.65;;;16.70;99.90;;;;;;5033117;28;20435;-60
2021/08/28 07:54:50;;;;;;;17.70;4.95;;;16.70;99.90;;;;;;5033796;28;20042;-61
2021/08/28 07:57:16;;;;;;;21.08;5.43;;;16.60;99.90;;;;;;5033533;28;20037;-59
2021/08/28 07:59:41;;;;;;;16.00;4.97;;;16.60;99.90;;;;;;5033317;28;20025;-60
2021/08/28 08:02:07;;;;;;;19.88;5.63;;;16.50;99.90;;;;;;5033160;28;20040;-60
2021/08/28 08:04:33;;;;;;;21.25;5.20;;;16.50;99.90;;;;;;5033436;28;20044;-58
2021/08/28 08:06:59;;;;;;;16.40;4.97;;;16.60;99.90;;;;;;5033156;28;20030;-60
2021/08/28 08:09:25;;;;;;;21.52;4.97;;;16.70;99.90;;;;;;5032016;28;20104;-60
2021/08/28 08:11:50;;;;;;;18.00;4.90;;;16.80;99.90;;;;;;5065577;28;20486;-61
2021/08/28 08:14:16;;;;;;;16.67;4.63;;;16.90;99.90;;;;;;5032668;28;20497;-59
2021/08/28 08:16:42;;;;;;;14.63;4.80;;;16.90;99.90;;;;;;5033376;28;20439;-59
2021/08/28 08:19:07;;;;;;;20.05;5.43;;;16.90;99.90;;;;;;5032348;28;20030;-59
2021/08/28 08:21:33;;;;;;;15.60;5.03;;;17.00;99.90;;;;;;5033505;28;20033;-60
2021/08/28 08:23:59;;;;;;;16.90;4.47;;;17.00;99.90;;;;;;5031742;28;20034;-61
2021/08/28 08:26:24;;;;;;;19.42;4.97;;;16.90;99.90;;;;;;5033274;28;20103;-60
2021/08/28 08:28:51;;;;;;;15.20;5.20;;;16.90;99.90;;;;;;5032085;28;20049;-60
2021/08/28 08:31:17;;;;;;;21.00;4.50;;;16.80;99.90;;;;;;5032860;28;20476;-60
2021/08/28 08:33:42;;;;;;;19.77;5.13;;;16.90;99.90;;;;;;5032246;28;20080;-60
2021/08/28 08:36:08;;;;;;;14.88;4.20;;;16.90;99.90;;;;;;5032885;28;20034;-61
2021/08/28 08:38:34;;;;;;;23.75;4.47;;;16.90;99.90;;;;;;5032403;28;20026;-61
2021/08/28 08:41:00;;;;;;;13.15;4.15;;;16.80;99.90;;;;;;5032665;28;20025;-59
2021/08/28 08:43:27;;;;;;;18.30;4.80;;;16.90;99.90;;;;;;5032036;28;20108;-60
2021/08/28 08:45:54;;;;;;;16.40;4.72;;;17.00;99.90;;;;;;5032930;28;20099;-59
2021/08/28 08:48:21;;;;;;;18.38;4.88;;;17.20;99.90;;;;;;5032080;28;20045;-60
2021/08/28 08:50:47;;;;;;;17.23;5.10;;;17.30;99.90;;;;;;5032725;28;20025;-62
2021/08/28 08:53:17;;;;;;;16.20;4.70;;;17.20;99.90;;;;;;5032134;28;20039;-61
2021/08/28 08:55:43;;;;;;;18.52;4.78;;;17.30;99.90;;;;;;5032581;28;20033;-60
2021/08/28 08:58:09;;;;;;;19.17;4.20;;;17.50;99.90;;;;;;5031668;28;20029;-59
2021/08/28 09:00:35;;;;;;;15.68;4.40;;;17.80;99.90;;;;;;5032751;28;20029;-58
2021/08/28 09:03:00;;;;;;;16.77;4.50;;;18.00;99.90;;;;;;5031593;28;20033;-61
2021/08/28 09:05:26;;;;;;;16.02;4.00;;;18.10;99.90;;;;;;5032384;28;20091;-60
2021/08/28 09:07:52;;;;;;;19.35;4.32;;;18.20;99.90;;;;;;5031765;28;20060;-61
2021/08/28 09:10:17;;;;;;;13.73;3.90;;;18.40;99.90;;;;;;5032295;28;20140;-62
2021/08/28 09:12:44;;;;;;;12.85;3.83;;;18.60;99.90;;;;;;5031991;28;20018;-61
2021/08/28 09:15:15;;;;;;;15.75;3.97;;;18.80;99.90;;;;;;5031815;28;20038;-60
2021/08/28 09:17:59;;;;;;;16.17;3.47;;;19.00;99.90;;;;;;5031662;28;20063;-60
2021/08/28 09:20:25;;;;;;;12.20;3.75;;;19.10;99.90;;;;;;5031924;28;20029;-60
2021/08/28 09:23:04;;;;;;;16.27;4.22;;;19.00;99.90;;;;;;5031761;28;20029;-62
2021/08/28 09:25:29;;;;;;;19.98;4.15;;;18.70;99.90;;;;;;5031893;28;20528;-61
2021/08/28 09:27:55;;;;;;;12.93;3.75;;;18.70;99.90;;;;;;5031219;28;20053;-60
2021/08/28 09:30:32;;;;;;;12.35;4.35;;;18.60;99.90;;;;;;5031694;28;20036;-61
2021/08/28 09:33:07;;;;;;;12.35;3.30;;;18.50;99.90;;;;;;5031393;28;20068;-62
2021/08/28 09:35:39;;;;;;;9.10;3.13;;;18.50;99.90;;;;;;5031545;28;20049;-60
2021/08/28 09:38:13;;;;;;;8.63;3.33;;;17.90;99.90;;;;;;5030980;28;20378;-61
2021/08/28 09:40:55;;;;;;;5.90;2.83;;;17.60;99.90;;;;;;5030247;28;20474;-60
2021/08/28 09:43:21;;;;;;;5.85;2.50;;;17.40;99.90;;;;;;5030461;28;20033;-61
2021/08/28 09:45:50;;;;;;;7.68;2.90;;;17.40;99.90;;;;;;5031317;28;20056;-60
2021/08/28 09:48:18;;;;;;;9.73;3.25;;;17.50;99.90;;;;;;5030636;28;20192;-60
2021/08/28 09:50:46;;;;;;;10.30;2.67;;;17.50;99.90;;;;;;5031899;28;20039;-61
2021/08/28 09:53:17;;;;;;;8.68;2.55;;;17.40;99.90;;;;;;5030897;28;20555;-59
2021/08/28 09:55:43;;;;;;;8.38;2.60;;;17.40;99.90;;;;;;5031504;28;20037;-61
2021/08/28 09:58:11;;;;;;;9.77;3.00;;;17.50;99.90;;;;;;5030433;28;20053;-58
2021/08/28 10:00:45;;;;;;;11.63;3.17;;;17.50;99.90;;;;;;5031367;28;20049;-60
2021/08/28 10:03:12;;;;;;;8.93;2.80;;;17.50;99.90;;;;;;5030694;28;20476;-60
2021/08/28 10:05:39;;;;;;;7.47;3.20;;;17.60;99.90;;;;;;5030068;28;20066;-60
2021/08/28 10:08:09;;;;;;;12.30;3.65;;;17.60;99.90;;;;;;5030791;28;20040;-59
2021/08/28 10:10:37;;;;;;;13.45;3.53;;;17.70;99.90;;;;;;5030940;28;20480;-59
2021/08/28 10:13:05;;;;;;;8.98;3.17;;;17.80;99.90;;;;;;5045961;28;20501;-59
2021/08/28 10:15:34;;;;;;;14.88;3.53;;;17.80;99.90;;;;;;5030433;28;20025;-59
2021/08/28 10:18:02;;;;;;;7.32;3.03;;;17.90;99.90;;;;;;5030565;28;20037;-59
2021/08/28 10:20:29;;;;;;;9.60;3.47;;;17.90;99.90;;;;;;5030287;28;20472;-59
2021/08/28 10:22:57;;;;;;;12.20;3.35;;;18.10;99.90;;;;;;5030600;28;20022;-59
2021/08/28 10:25:26;;;;;;;11.82;3.33;;;18.20;99.90;;;;;;5030704;28;20084;-60
2021/08/28 10:27:54;;;;;;;14.32;3.25;;;18.40;99.90;;;;;;5029918;28;20048;-60
2021/08/28 10:30:22;;;;;;;9.48;3.30;;;18.40;99.90;;;;;;5030736;28;20387;-59
2021/08/28 10:32:48;;;;;;;12.38;3.60;;;18.40;99.90;;;;;;5030884;28;20037;-59
2021/08/28 10:35:16;;;;;;;10.32;3.75;;;18.70;99.90;;;;;;5030552;28;20065;-59
2021/08/28 10:37:42;;;;;;;11.95;3.83;;;18.90;99.90;;;;;;5030681;28;20029;-59
2021/08/28 10:40:32;;;;;;;11.73;3.42;;;18.90;99.90;;;;;;5029885;28;20052;-60
2021/08/28 10:43:07;;;;;;;13.82;3.20;;;18.90;99.90;;;;;;5026792;28;20037;-59
2021/08/28 10:45:36;;;;;;;16.23;4.32;;;19.00;99.90;;;;;;5030593;28;20041;-59
2021/08/28 10:48:05;;;;;;;10.13;3.45;;;19.10;99.90;;;;;;5030305;28;20124;-58
2021/08/28 10:50:37;;;;;;;14.68;3.55;;;19.20;99.90;;;;;;5045976;28;20035;-60
2021/08/28 10:53:04;;;;;;;10.20;3.30;;;19.20;99.90;;;;;;5031284;28;20029;-60
2021/08/28 10:55:41;;;;;;;13.15;4.15;;;19.30;99.90;;;;;;5045272;28;20125;-60
2021/08/28 10:58:13;;;;;;;16.75;3.35;;;19.40;99.90;;;;;;5033793;28;20419;-59
2021/08/28 11:00:59;;;;;;;10.00;3.47;;;19.50;99.90;;;;;;5034256;28;20464;-59
2021/08/28 11:03:29;;;;;;;11.80;3.53;;;19.50;99.90;;;;;;5021767;28;20400;-60
2021/08/28 11:06:13;;;;;;;10.70;3.15;;;19.40;99.90;;;;;;5034488;28;20025;-60
2021/08/28 11:08:49;;;;;;;10.60;3.35;;;19.50;99.90;;;;;;5022111;28;20029;-59
2021/08/28 11:11:24;;;;;;;7.70;3.17;;;19.40;99.90;;;;;;5034683;28;20072;-61
2021/08/28 11:14:06;;;;;;;9.38;3.55;;;19.30;99.90;;;;;;5033767;28;20039;-59
2021/08/28 11:16:44;;;;;;;11.05;3.92;;;19.20;99.90;;;;;;5034503;28;20029;-59
2021/08/28 11:19:19;;;;;;;13.98;3.33;;;19.10;99.90;;;;;;5033521;28;20025;-60
2021/08/28 11:21:48;;;;;;;15.60;3.45;;;19.10;99.90;;;;;;5034089;28;20159;-59
2021/08/28 11:24:16;;;;;;;15.63;4.28;;;19.10;99.90;;;;;;5033516;28;20052;-60
2021/08/28 11:26:42;;;;;;;13.82;3.80;;;19.20;99.90;;;;;;5034402;28;20049;-60
2021/08/28 11:29:31;;;;;;;11.60;3.30;;;19.40;99.90;;;;;;5033019;28;20412;-60
2021/08/28 11:32:17;;;;;;;11.48;3.42;;;19.60;99.90;;;;;;5033901;28;20372;-60
2021/08/28 11:34:51;;;;;;;13.52;3.50;;;19.70;99.90;;;;;;5033420;28;20034;-63
2021/08/28 11:37:26;;;;;;;10.27;3.37;;;19.70;99.90;;;;;;5034107;28;20064;-61
2021/08/28 11:39:53;;;;;;;10.07;3.30;;;19.70;99.90;;;;;;5033077;28;20037;-61
2021/08/28 11:42:19;;;;;;;6.25;2.92;;;19.50;99.90;;;;;;5049213;28;20041;-60
2021/08/28 11:44:51;;;;;;;7.95;2.88;;;19.50;99.90;;;;;;5032860;28;20358;-61
2021/08/28 11:47:18;;;;;;;13.88;3.38;;;19.30;99.90;;;;;;5033959;28;20087;-60
2021/08/28 11:49:45;;;;;;;9.23;3.10;;;19.30;99.90;;;;;;5028218;28;20065;-63
2021/08/28 11:52:11;;;;;;;7.75;3.03;;;19.30;99.90;;;;;;5026755;28;20450;-61
2021/08/28 11:54:38;;;;;;;8.63;3.15;;;19.30;99.90;;;;;;5032689;28;20026;-59
2021/08/28 11:57:04;;;;;;;8.90;3.38;;;19.30;99.90;;;;;;5033749;28;20029;-62
2021/08/28 11:59:40;;;;;;;9.68;3.03;;;19.40;99.90;;;;;;5032836;28;20080;-60
2021/08/28 12:02:07;;;;;;;8.98;3.50;;;19.70;99.90;;;;;;5033561;28;20075;-60
2021/08/28 12:04:37;;;;;;;7.75;3.20;;;19.70;99.90;;;;;;5031662;28;20028;-62
2021/08/28 12:07:04;;;;;;;8.80;3.22;;;19.80;99.90;;;;;;5033681;28;20030;-60
2021/08/28 12:09:31;;;;;;;9.73;3.22;;;20.00;99.90;;;;;;5033259;28;20033;-61
2021/08/28 12:11:58;;;;;;;10.93;3.15;;;19.90;99.90;;;;;;5033446;28;20022;-60
2021/08/28 12:14:29;;;;;;;7.75;3.20;;;19.80;99.90;;;;;;5032784;28;20502;-62
2021/08/28 12:16:56;;;;;;;11.43;2.85;;;19.80;99.90;;;;;;5033411;28;20040;-62
2021/08/28 12:19:24;;;;;;;8.95;3.33;;;19.70;99.90;;;;;;5032355;28;20022;-61
2021/08/28 12:21:56;;;;;;;6.63;2.75;;;19.70;99.90;;;;;;5033065;28;20052;-62
2021/08/28 12:24:24;;;;;;;12.05;3.13;;;19.70;99.90;;;;;;5032534;28;20096;-59
2021/08/28 12:26:58;;;;;;;10.38;2.97;;;19.70;99.90;;;;;;5032945;28;20060;-60
2021/08/28 12:29:32;;;;;;;7.93;2.10;;;19.70;99.90;;;;;;5032393;28;20071;-60
2021/08/28 12:32:03;;;;;;;7.70;2.30;;;19.70;99.90;;;;;;5033117;28;20029;-59
2021/08/28 12:34:30;;;;;;;12.10;2.85;;;19.60;99.90;;;;;;5031805;28;20048;-60
2021/08/28 12:37:02;;;;;;;9.02;2.53;;;19.60;99.90;;;;;;5033247;28;20498;-60
2021/08/28 12:39:28;;;;;;;9.35;2.47;;;19.60;99.90;;;;;;5032466;28;20468;-61